Maberry, Arkansas
Current Conditions -  °F | °C
As of 2:24 AM on Thursday 18 Dec 2014 (Local Time) from KSRC Reporting Station
Light Rain Light Rain  
Wind Chill: 31°   Ceiling: 1100
Heat Index: 36°   Visibility: 10mi
Dew Point: 36°   Wind: 6mph
Humidity: 100%   Direction: 60°ENE
Pressure: 30.26"   Gusts: NA
Location:  35.03°N, 91.2263°W
Report Text: KSRC 180824Z AUTO 06005KT 10SM -RA SCT007 BKN011 OVC055 02/02 A3026 RMK AO2 P0001 FZRANO TSNO
Loading
Personal Weather Stations






























Interactive Weather Map New forecast layout! Learn more

10-Day Weather Forecast

Advertisements
Track Severe Weather on mobile